createdAt,value
2016-10-08T00:00:41.743Z,0
2016-10-08T00:01:42.103Z,0
2016-10-08T00:02:42.217Z,0
2016-10-08T00:03:42.121Z,0
2016-10-08T00:04:42.185Z,0
2016-10-08T00:05:42.601Z,0
2016-10-08T00:06:41.867Z,0
2016-10-08T00:07:41.865Z,0
2016-10-08T00:08:42.418Z,0
2016-10-08T00:09:42.244Z,0
2016-10-08T00:10:41.932Z,0
2016-10-08T00:11:42.285Z,0
2016-10-08T00:12:42.297Z,0
2016-10-08T00:13:42.057Z,0
2016-10-08T00:14:41.747Z,0
2016-10-08T00:15:42.345Z,0
2016-10-08T00:16:42.495Z,0
2016-10-08T00:17:42.378Z,0
2016-10-08T00:18:42.425Z,0
2016-10-08T00:19:42.537Z,0
2016-10-08T00:20:42.828Z,0
2016-10-08T00:21:42.436Z,0
2016-10-08T00:22:42.526Z,0
2016-10-08T00:23:42.167Z,0
2016-10-08T00:24:42.864Z,0
2016-10-08T00:25:42.572Z,0
2016-10-08T00:26:42.285Z,0
2016-10-08T00:27:42.557Z,0
2016-10-08T00:28:42.703Z,0
2016-10-08T00:29:42.916Z,0
2016-10-08T00:30:42.914Z,0
2016-10-08T00:31:42.664Z,0
2016-10-08T00:32:42.638Z,0
2016-10-08T00:33:42.358Z,0
2016-10-08T00:34:42.431Z,0
2016-10-08T00:35:42.715Z,0
2016-10-08T00:36:42.506Z,0
2016-10-08T00:37:42.765Z,0
2016-10-08T00:38:42.773Z,0
2016-10-08T00:39:43.083Z,0
2016-10-08T00:40:42.856Z,0
2016-10-08T00:41:42.845Z,0
2016-10-08T00:42:43.127Z,0
2016-10-08T00:43:42.843Z,0
2016-10-08T00:44:42.877Z,0
2016-10-08T00:45:43.197Z,0
2016-10-08T00:46:42.595Z,0
2016-10-08T00:47:43.220Z,0
2016-10-08T00:48:42.630Z,0
2016-10-08T00:49:43.291Z,0
2016-10-08T00:50:43.336Z,0
2016-10-08T00:51:42.978Z,0
2016-10-08T00:52:42.715Z,0
2016-10-08T00:53:43.045Z,0
2016-10-08T00:54:43.046Z,0
2016-10-08T00:55:42.894Z,0
2016-10-08T00:56:43.109Z,0
2016-10-08T00:57:43.414Z,0
2016-10-08T00:58:43.508Z,0
2016-10-08T00:59:43.164Z,0
2016-10-08T01:00:43.626Z,0
2016-10-08T01:01:42.869Z,0
2016-10-08T01:02:43.523Z,0
2016-10-08T01:03:42.946Z,0
2016-10-08T01:04:43.541Z,0
2016-10-08T01:05:43.241Z,0
2016-10-08T01:06:43.582Z,0
2016-10-08T01:07:43.283Z,0
2016-10-08T01:08:43.637Z,0
2016-10-08T01:09:43.637Z,0
2016-10-08T01:10:43.397Z,0
2016-10-08T01:11:43.662Z,0
2016-10-08T01:12:43.405Z,0
2016-10-08T01:13:42.781Z,0
2016-10-08T01:14:43.733Z,0
2016-10-08T01:15:43.122Z,0
2016-10-08T01:16:43.753Z,0
2016-10-08T01:17:43.782Z,0
2016-10-08T01:18:43.505Z,0
2016-10-08T01:19:43.802Z,0
2016-10-08T01:20:43.816Z,0
2016-10-08T01:21:43.858Z,0
2016-10-08T01:22:43.557Z,0
2016-10-08T01:23:43.944Z,0
2016-10-08T01:24:43.896Z,0
2016-10-08T01:25:44.267Z,0
2016-10-08T01:26:43.938Z,0
2016-10-08T01:27:43.645Z,0
2016-10-08T01:28:43.986Z,0
2016-10-08T01:29:44.106Z,0
2016-10-08T01:30:43.691Z,0
2016-10-08T01:31:44.044Z,0
2016-10-08T01:32:43.424Z,0
2016-10-08T01:33:43.774Z,0
2016-10-08T01:34:44.086Z,0
2016-10-08T01:35:44.084Z,0
2016-10-08T01:36:44.130Z,0
2016-10-08T01:37:43.827Z,0
2016-10-08T01:38:43.916Z,0
2016-10-08T01:39:44.265Z,0
2016-10-08T01:40:43.880Z,0
2016-10-08T01:41:43.885Z,0
2016-10-08T01:42:44.216Z,0
2016-10-08T01:43:44.247Z,0
2016-10-08T01:44:44.268Z,0
2016-10-08T01:45:44.286Z,0
2016-10-08T01:46:44.307Z,0
2016-10-08T01:47:44.314Z,0
2016-10-08T01:48:44.344Z,0
2016-10-08T01:49:44.365Z,0
2016-10-08T01:50:44.637Z,0
2016-10-08T01:51:44.175Z,0
2016-10-08T01:52:44.406Z,0
2016-10-08T01:53:44.445Z,0
2016-10-08T01:54:44.184Z,0
2016-10-08T01:55:44.516Z,0
2016-10-08T01:56:43.864Z,0
2016-10-08T01:57:44.496Z,0
2016-10-08T01:58:44.525Z,0
2016-10-08T01:59:44.224Z,0
2016-10-08T02:00:44.288Z,0
2016-10-08T02:01:44.003Z,0
2016-10-08T02:02:44.267Z,0
2016-10-08T02:03:44.591Z,0
2016-10-08T02:04:44.635Z,0
2016-10-08T02:05:44.103Z,0
2016-10-08T02:06:44.349Z,0
2016-10-08T02:07:44.739Z,0
2016-10-08T02:08:44.367Z,0
2016-10-08T02:09:44.395Z,0
2016-10-08T02:10:44.737Z,0
2016-10-08T02:11:44.754Z,0
2016-10-08T02:12:44.767Z,0
2016-10-08T02:13:44.786Z,0
2016-10-08T02:14:44.525Z,0
2016-10-08T02:15:44.196Z,0
2016-10-08T02:16:44.264Z,0
2016-10-08T02:17:44.552Z,0
2016-10-08T02:18:44.871Z,0
2016-10-08T02:19:44.573Z,0
2016-10-08T02:20:44.909Z,0
2016-10-08T02:21:44.387Z,0
2016-10-08T02:22:44.317Z,0
2016-10-08T02:23:44.653Z,0
2016-10-08T02:24:44.685Z,0
2016-10-08T02:25:44.987Z,0
2016-10-08T02:26:44.693Z,0
2016-10-08T02:27:44.851Z,0
2016-10-08T02:28:44.721Z,0
2016-10-08T02:29:44.784Z,0
2016-10-08T02:30:45.058Z,0
2016-10-08T02:31:44.448Z,0
2016-10-08T02:32:44.574Z,0
2016-10-08T02:33:45.107Z,0
2016-10-08T02:34:44.837Z,0
2016-10-08T02:35:44.837Z,0
2016-10-08T02:36:44.859Z,0
2016-10-08T02:37:44.567Z,0
2016-10-08T02:38:44.597Z,0
2016-10-08T02:39:44.934Z,0
2016-10-08T02:40:45.246Z,0
2016-10-08T02:41:45.247Z,0
2016-10-08T02:42:44.973Z,0
2016-10-08T02:43:44.974Z,0
2016-10-08T02:44:44.997Z,0
2016-10-08T02:45:45.006Z,0
2016-10-08T02:46:45.037Z,0
2016-10-08T02:47:45.037Z,0
2016-10-08T02:48:45.371Z,0
2016-10-08T02:49:44.866Z,0
2016-10-08T02:50:45.128Z,0
2016-10-08T02:51:45.114Z,0
2016-10-08T02:52:45.142Z,0
2016-10-08T02:53:44.835Z,0
2016-10-08T02:54:45.479Z,0
2016-10-08T02:55:45.470Z,0
2016-10-08T02:56:44.684Z,0
2016-10-08T02:57:45.206Z,0
2016-10-08T02:58:45.545Z,0
2016-10-08T02:59:45.558Z,0
2016-10-08T03:00:45.343Z,0
2016-10-08T03:01:45.274Z,0
2016-10-08T03:02:44.681Z,0
2016-10-08T03:03:44.685Z,0
2016-10-08T03:04:45.680Z,0
2016-10-08T03:05:45.035Z,0
2016-10-08T03:06:45.055Z,0
2016-10-08T03:07:45.364Z,0
2016-10-08T03:08:45.701Z,0
2016-10-08T03:09:45.103Z,0
2016-10-08T03:10:45.720Z,0
2016-10-08T03:11:45.753Z,0
2016-10-08T03:12:45.153Z,0
2016-10-08T03:13:45.499Z,0
2016-10-08T03:14:45.499Z,0
2016-10-08T03:15:45.201Z,0
2016-10-08T03:16:45.218Z,0
2016-10-08T03:17:45.909Z,0
2016-10-08T03:18:45.903Z,0
2016-10-08T03:19:45.881Z,0
2016-10-08T03:20:45.282Z,0
2016-10-08T03:21:45.292Z,0
2016-10-08T03:22:45.610Z,0
2016-10-08T03:23:45.339Z,0
2016-10-08T03:24:45.725Z,0
2016-10-08T03:25:45.981Z,0
2016-10-08T03:26:46.009Z,0
2016-10-08T03:27:46.023Z,0
2016-10-08T03:28:45.728Z,0
2016-10-08T03:29:45.751Z,0
2016-10-08T03:30:45.759Z,0
2016-10-08T03:31:45.775Z,0
2016-10-08T03:32:45.801Z,0
2016-10-08T03:33:45.803Z,0
2016-10-08T03:34:45.502Z,0
2016-10-08T03:35:46.152Z,0
2016-10-08T03:36:46.150Z,0
2016-10-08T03:37:45.918Z,0
2016-10-08T03:38:45.582Z,0
2016-10-08T03:39:46.222Z,0
2016-10-08T03:40:46.328Z,0
2016-10-08T03:41:46.311Z,0
2016-10-08T03:42:45.952Z,0
2016-10-08T03:43:45.655Z,0
2016-10-08T03:44:45.655Z,0
2016-10-08T03:45:46.382Z,0
2016-10-08T03:46:46.022Z,0
2016-10-08T03:47:46.172Z,0
2016-10-08T03:48:46.337Z,0
2016-10-08T03:49:46.358Z,0
2016-10-08T03:50:45.761Z,0
2016-10-08T03:51:46.404Z,0
2016-10-08T03:52:46.112Z,0
2016-10-08T03:53:46.168Z,0
2016-10-08T03:54:46.181Z,0
2016-10-08T03:55:46.210Z,0
2016-10-08T03:56:46.536Z,0
2016-10-08T03:57:46.227Z,0
2016-10-08T03:58:46.200Z,0
2016-10-08T03:59:46.606Z,0
2016-10-08T04:00:46.546Z,0
2016-10-08T04:01:46.260Z,0
2016-10-08T04:02:46.151Z,0
2016-10-08T04:03:46.280Z,0
2016-10-08T04:04:45.982Z,0
2016-10-08T04:05:46.361Z,0
2016-10-08T04:06:46.650Z,0
2016-10-08T04:07:46.342Z,0
2016-10-08T04:08:46.052Z,0
2016-10-08T04:09:46.758Z,0
2016-10-08T04:10:46.400Z,0
2016-10-08T04:11:46.702Z,0
2016-10-08T04:12:46.747Z,0
2016-10-08T04:13:46.424Z,0
2016-10-08T04:14:45.933Z,0
2016-10-08T04:15:46.777Z,0
2016-10-08T04:16:46.790Z,0
2016-10-08T04:17:46.205Z,0
2016-10-08T04:18:46.205Z,0
2016-10-08T04:19:46.588Z,0
2016-10-08T04:20:46.900Z,0
2016-10-08T04:21:46.854Z,0
2016-10-08T04:22:47.029Z,0
2016-10-08T04:23:46.680Z,0
2016-10-08T04:24:46.615Z,0
2016-10-08T04:25:46.324Z,0
2016-10-08T04:26:46.633Z,0
2016-10-08T04:27:47.053Z,0
2016-10-08T04:28:47.004Z,0
2016-10-08T04:29:46.095Z,0
2016-10-08T04:30:46.437Z,0
2016-10-08T04:31:46.767Z,0
2016-10-08T04:32:47.058Z,0
2016-10-08T04:33:46.758Z,0
2016-10-08T04:34:47.223Z,0
2016-10-08T04:35:46.488Z,0
2016-10-08T04:36:47.098Z,0
2016-10-08T04:37:47.245Z,0
2016-10-08T04:38:47.194Z,0
2016-10-08T04:39:46.907Z,0
2016-10-08T04:40:46.908Z,0
2016-10-08T04:41:46.868Z,0
2016-10-08T04:42:46.890Z,0
2016-10-08T04:43:47.227Z,0
2016-10-08T04:44:46.647Z,0
2016-10-08T04:45:46.948Z,0
2016-10-08T04:46:46.967Z,0
2016-10-08T04:47:47.048Z,0
2016-10-08T04:48:47.299Z,0
2016-10-08T04:49:47.038Z,0
2016-10-08T04:50:47.048Z,0
2016-10-08T04:51:47.395Z,0
2016-10-08T04:52:47.374Z,0
2016-10-08T04:53:47.374Z,0
2016-10-08T04:54:47.094Z,0
2016-10-08T04:55:47.425Z,0
2016-10-08T04:56:46.825Z,0
2016-10-08T04:57:47.496Z,0
2016-10-08T04:58:46.861Z,0
2016-10-08T04:59:47.298Z,0
2016-10-08T05:00:47.496Z,0
2016-10-08T05:01:47.219Z,0
2016-10-08T05:02:47.538Z,4
2016-10-08T05:03:47.239Z,4
2016-10-08T05:04:47.264Z,0
2016-10-08T05:05:46.960Z,0
2016-10-08T05:06:47.287Z,4
2016-10-08T05:07:47.367Z,4
2016-10-08T05:08:47.330Z,4
2016-10-08T05:09:47.338Z,8
2016-10-08T05:10:47.346Z,8
2016-10-08T05:11:47.058Z,8
2016-10-08T05:12:47.077Z,8
2016-10-08T05:13:47.396Z,60
2016-10-08T05:14:47.733Z,60
2016-10-08T05:15:47.751Z,64
2016-10-08T05:16:47.458Z,64
2016-10-08T05:17:47.470Z,68
2016-10-08T05:18:47.479Z,72
2016-10-08T05:19:47.501Z,76
2016-10-08T05:20:47.880Z,84
2016-10-08T05:21:47.896Z,88
2016-10-08T05:22:47.240Z,96
2016-10-08T05:23:47.871Z,100
2016-10-08T05:24:47.909Z,112
2016-10-08T05:25:47.607Z,116
2016-10-08T05:26:47.920Z,128
2016-10-08T05:27:47.923Z,140
2016-10-08T05:28:47.969Z,152
2016-10-08T05:29:48.031Z,164
2016-10-08T05:30:47.664Z,176
2016-10-08T05:31:47.385Z,200
2016-10-08T05:32:47.701Z,208
2016-10-08T05:33:47.721Z,228
2016-10-08T05:34:48.098Z,248
2016-10-08T05:35:48.063Z,280
2016-10-08T05:36:47.776Z,300
2016-10-08T05:37:47.469Z,312
2016-10-08T05:38:48.123Z,332
2016-10-08T05:39:47.822Z,348
2016-10-08T05:40:47.518Z,384
2016-10-08T05:41:47.535Z,432
2016-10-08T05:42:47.971Z,488
2016-10-08T05:43:47.550Z,544
2016-10-08T05:44:47.594Z,560
2016-10-08T05:45:48.268Z,584
2016-10-08T05:46:47.926Z,620
2016-10-08T05:47:47.644Z,656
2016-10-08T05:48:48.288Z,688
2016-10-08T05:49:48.292Z,728
2016-10-08T05:50:48.335Z,772
2016-10-08T05:51:47.383Z,872
2016-10-08T05:52:48.015Z,892
2016-10-08T05:53:47.417Z,928
2016-10-08T05:54:48.349Z,1012
2016-10-08T05:55:48.068Z,992
2016-10-08T05:56:48.393Z,1024
2016-10-08T05:57:47.781Z,1064
2016-10-08T05:58:47.805Z,1112
2016-10-08T05:59:47.819Z,1156
2016-10-08T06:00:48.147Z,1192
2016-10-08T06:01:48.165Z,1224
2016-10-08T06:02:48.585Z,1284
2016-10-08T06:03:48.256Z,1332
2016-10-08T06:04:48.598Z,1380
2016-10-08T06:05:47.922Z,1420
2016-10-08T06:06:47.949Z,1472
2016-10-08T06:07:48.575Z,1532
2016-10-08T06:08:48.576Z,1596
2016-10-08T06:09:48.605Z,1660
2016-10-08T06:10:48.623Z,1732
2016-10-08T06:11:48.326Z,1788
2016-10-08T06:12:48.035Z,1884
2016-10-08T06:13:49.638Z,2044
2016-10-08T06:14:47.753Z,2120
2016-10-08T06:15:48.740Z,2276
2016-10-08T06:16:48.747Z,2456
2016-10-08T06:17:52.494Z,2768
2016-10-08T06:18:48.446Z,3044
2016-10-08T06:19:48.786Z,3556
2016-10-08T06:20:48.451Z,4620
2016-10-08T06:21:48.797Z,5332
2016-10-08T06:22:48.820Z,4552
2016-10-08T06:23:48.512Z,3516
2016-10-08T06:24:48.596Z,3536
2016-10-08T06:25:48.857Z,3572
2016-10-08T06:26:49.015Z,3700
2016-10-08T06:27:50.693Z,3864
2016-10-08T06:28:49.117Z,4072
2016-10-08T06:29:49.073Z,4112
2016-10-08T06:30:48.622Z,4292
2016-10-08T06:31:48.636Z,4544
2016-10-08T06:32:48.975Z,4288
2016-10-08T06:33:48.686Z,4588
2016-10-08T06:34:49.254Z,5124
2016-10-08T06:35:49.010Z,5456
2016-10-08T06:36:49.276Z,5692
2016-10-08T06:37:49.337Z,6380
2016-10-08T06:38:49.336Z,9952
2016-10-08T06:39:49.015Z,12032
2016-10-08T06:40:49.100Z,9732
2016-10-08T06:41:49.334Z,8340
2016-10-08T06:42:49.382Z,7004
2016-10-08T06:43:48.627Z,7736
2016-10-08T06:44:49.625Z,9896
2016-10-08T06:45:49.379Z,10100
2016-10-08T06:46:49.149Z,9024
2016-10-08T06:47:49.318Z,7048
2016-10-08T06:48:49.497Z,6304
2016-10-08T06:49:48.935Z,6372
2016-10-08T06:50:49.156Z,7440
2016-10-08T06:51:48.972Z,12416
2016-10-08T06:52:49.587Z,14112
2016-10-08T06:53:49.020Z,14368
2016-10-08T06:54:48.777Z,14720
2016-10-08T06:55:48.848Z,14624
2016-10-08T06:56:49.086Z,14880
2016-10-08T06:57:49.287Z,14944
2016-10-08T06:58:49.444Z,15168
2016-10-08T06:59:49.554Z,14880
2016-10-08T07:00:49.145Z,14720
2016-10-08T07:01:49.679Z,14880
2016-10-08T07:02:48.938Z,15456
2016-10-08T07:03:49.553Z,15552
2016-10-08T07:04:49.302Z,15456
2016-10-08T07:05:49.425Z,15680
2016-10-08T07:06:49.231Z,15712
2016-10-08T07:07:49.676Z,16160
2016-10-08T07:08:49.292Z,16448
2016-10-08T07:09:49.628Z,16800
2016-10-08T07:10:49.825Z,17088
2016-10-08T07:11:49.672Z,13824
2016-10-08T07:12:49.417Z,7276
2016-10-08T07:13:49.697Z,5072
2016-10-08T07:14:49.106Z,5432
2016-10-08T07:15:49.432Z,5896
2016-10-08T07:16:49.765Z,6392
2016-10-08T07:17:49.766Z,6388
2016-10-08T07:18:49.488Z,5904
2016-10-08T07:19:49.817Z,5840
2016-10-08T07:20:49.826Z,6016
2016-10-08T07:21:49.550Z,6056
2016-10-08T07:22:49.561Z,5920
2016-10-08T07:23:49.900Z,5932
2016-10-08T07:24:49.955Z,5940
2016-10-08T07:25:49.313Z,6312
2016-10-08T07:26:49.955Z,6124
2016-10-08T07:27:49.967Z,5240
2016-10-08T07:28:49.669Z,4704
2016-10-08T07:29:49.703Z,4072
2016-10-08T07:30:49.724Z,3828
2016-10-08T07:31:49.413Z,3820
2016-10-08T07:32:49.762Z,3836
2016-10-08T07:33:50.061Z,3924
2016-10-08T07:34:49.791Z,4000
2016-10-08T07:35:50.014Z,4092
2016-10-08T07:36:49.831Z,4176
2016-10-08T07:37:49.839Z,4188
2016-10-08T07:38:50.152Z,4308
2016-10-08T07:39:50.213Z,4912
2016-10-08T07:40:50.228Z,5708
2016-10-08T07:41:49.594Z,6028
2016-10-08T07:42:49.951Z,5624
2016-10-08T07:43:50.270Z,5224
2016-10-08T07:44:49.970Z,4936
2016-10-08T07:45:50.035Z,5004
2016-10-08T07:46:49.765Z,5364
2016-10-08T07:47:50.411Z,5800
2016-10-08T07:48:50.035Z,6232
2016-10-08T07:49:50.389Z,6496
2016-10-08T07:50:50.390Z,6760
2016-10-08T07:51:49.910Z,6648
2016-10-08T07:52:50.108Z,6676
2016-10-08T07:53:50.438Z,6800
2016-10-08T07:54:50.151Z,7072
2016-10-08T07:55:50.479Z,7240
2016-10-08T07:56:50.700Z,7684
2016-10-08T07:57:49.885Z,7352
2016-10-08T07:58:50.555Z,7108
2016-10-08T07:59:50.393Z,6896
2016-10-08T08:00:50.336Z,6624
2016-10-08T08:01:50.567Z,6524
2016-10-08T08:02:50.321Z,6672
2016-10-08T08:03:50.316Z,6688
2016-10-08T08:04:50.362Z,6556
2016-10-08T08:05:50.372Z,6560
2016-10-08T08:06:50.719Z,6136
2016-10-08T08:07:50.459Z,5728
2016-10-08T08:08:51.538Z,5432
2016-10-08T08:09:50.137Z,5024
2016-10-08T08:10:50.460Z,4856
2016-10-08T08:11:51.215Z,4764
2016-10-08T08:12:52.026Z,4824
2016-10-08T08:13:51.024Z,4940
2016-10-08T08:14:51.143Z,5248
2016-10-08T08:15:51.888Z,5424
2016-10-08T08:16:51.324Z,5588
2016-10-08T08:17:50.480Z,5952
2016-10-08T08:18:51.516Z,6368
2016-10-08T08:19:51.079Z,6588
2016-10-08T08:20:51.050Z,6796
2016-10-08T08:21:51.803Z,7360
2016-10-08T08:22:50.996Z,8000
2016-10-08T08:23:50.913Z,8480
2016-10-08T08:24:51.039Z,8672
2016-10-08T08:25:51.061Z,8484
2016-10-08T08:26:51.160Z,8344
2016-10-08T08:27:51.263Z,8352
2016-10-08T08:28:52.023Z,8304
2016-10-08T08:29:51.359Z,8240
2016-10-08T08:30:50.987Z,8304
2016-10-08T08:31:51.336Z,8508
2016-10-08T08:32:50.997Z,8648
2016-10-08T08:33:51.977Z,8748
2016-10-08T08:34:51.940Z,8916
2016-10-08T08:35:52.844Z,9044
2016-10-08T08:36:52.338Z,9380
2016-10-08T08:37:51.318Z,9752
2016-10-08T08:38:51.372Z,9664
2016-10-08T08:39:51.003Z,9740
2016-10-08T08:40:51.089Z,9648
2016-10-08T08:41:51.411Z,9780
2016-10-08T08:42:51.148Z,10196
2016-10-08T08:43:51.389Z,10392
2016-10-08T08:44:51.119Z,10624
2016-10-08T08:45:51.443Z,10536
2016-10-08T08:46:51.458Z,10588
2016-10-08T08:47:51.499Z,10604
2016-10-08T08:48:51.200Z,10624
2016-10-08T08:49:51.195Z,10488
2016-10-08T08:50:51.375Z,10480
2016-10-08T08:51:51.560Z,10468
2016-10-08T08:52:51.597Z,10016
2016-10-08T08:53:51.606Z,9512
2016-10-08T08:54:50.699Z,9532
2016-10-08T08:55:51.836Z,9680
2016-10-08T08:56:51.342Z,9780
2016-10-08T08:57:51.376Z,10112
2016-10-08T08:58:51.087Z,10668
2016-10-08T08:59:51.737Z,10920
2016-10-08T09:00:51.435Z,10720
2016-10-08T09:01:51.757Z,10824
2016-10-08T09:02:51.478Z,10660
2016-10-08T09:03:51.535Z,11020
2016-10-08T09:04:51.819Z,10956
2016-10-08T09:05:51.869Z,10740
2016-10-08T09:06:51.939Z,10312
2016-10-08T09:07:51.269Z,9900
2016-10-08T09:08:51.950Z,9384
2016-10-08T09:09:51.952Z,9348
2016-10-08T09:10:54.968Z,9284
2016-10-08T09:11:51.965Z,9252
2016-10-08T09:12:51.357Z,9108
2016-10-08T09:13:51.699Z,9256
2016-10-08T09:14:51.870Z,9444
2016-10-08T09:15:51.747Z,9816
2016-10-08T09:16:51.442Z,10016
2016-10-08T09:17:52.091Z,9792
2016-10-08T09:18:52.114Z,9716
2016-10-08T09:19:52.115Z,9712
2016-10-08T09:20:52.152Z,9584
2016-10-08T09:21:52.189Z,9492
2016-10-08T09:22:52.181Z,9332
2016-10-08T09:23:52.001Z,9324
2016-10-08T09:24:52.217Z,9256
2016-10-08T09:25:51.604Z,9404
2016-10-08T09:26:51.648Z,9376
2016-10-08T09:27:52.358Z,9500
2016-10-08T09:28:52.330Z,9376
2016-10-08T09:29:52.327Z,9076
2016-10-08T09:30:52.042Z,8768
2016-10-08T09:31:52.551Z,8420
2016-10-08T09:32:53.013Z,8108
2016-10-08T09:33:52.926Z,8096
2016-10-08T09:34:53.883Z,8140
2016-10-08T09:35:52.641Z,7940
2016-10-08T09:36:54.062Z,7540
2016-10-08T09:37:53.749Z,7280
2016-10-08T09:38:55.395Z,7112
2016-10-08T09:39:53.863Z,7260
2016-10-08T09:40:53.482Z,7580
2016-10-08T09:41:53.593Z,7468
2016-10-08T09:42:54.073Z,8584
2016-10-08T09:43:53.847Z,11128
2016-10-08T09:44:52.375Z,10100
2016-10-08T09:45:52.981Z,9532
2016-10-08T09:46:52.207Z,10364
2016-10-08T09:47:53.646Z,10016
2016-10-08T09:48:53.190Z,11252
2016-10-08T09:49:52.968Z,10880
2016-10-08T09:50:53.115Z,12292
2016-10-08T09:51:52.565Z,13928
2016-10-08T09:52:53.568Z,14196
2016-10-08T09:53:52.225Z,15200
2016-10-08T09:54:52.691Z,14340
2016-10-08T09:55:53.137Z,12924
2016-10-08T09:56:53.313Z,11564
2016-10-08T09:57:53.154Z,11244
2016-10-08T09:58:52.725Z,10872
2016-10-08T09:59:53.104Z,9976
2016-10-08T10:00:53.159Z,8984
2016-10-08T10:01:53.141Z,8264
2016-10-08T10:02:53.228Z,7668
2016-10-08T10:03:53.523Z,6144
2016-10-08T10:04:53.327Z,4996
2016-10-08T10:05:54.258Z,4908
2016-10-08T10:06:53.447Z,4400
2016-10-08T10:07:53.805Z,3704
2016-10-08T10:08:53.123Z,3512
2016-10-08T10:09:53.738Z,3276
2016-10-08T10:10:53.273Z,3108
2016-10-08T10:11:53.285Z,2944
2016-10-08T10:12:53.221Z,3120
2016-10-08T10:13:53.250Z,2780
2016-10-08T10:14:53.320Z,2920
2016-10-08T10:15:53.416Z,3264
2016-10-08T10:16:53.347Z,3584
2016-10-08T10:17:53.213Z,3860
2016-10-08T10:18:52.420Z,3832
2016-10-08T10:19:52.870Z,3852
2016-10-08T10:20:53.244Z,4376
2016-10-08T10:21:53.171Z,5112
2016-10-08T10:22:52.841Z,5560
2016-10-08T10:23:53.157Z,5988
2016-10-08T10:24:53.293Z,6216
2016-10-08T10:25:53.213Z,6632
2016-10-08T10:26:52.900Z,7200
2016-10-08T10:27:53.591Z,7660
2016-10-08T10:28:53.651Z,8052
2016-10-08T10:29:53.282Z,8316
2016-10-08T10:30:53.406Z,8604
2016-10-08T10:31:53.323Z,8808
2016-10-08T10:32:53.661Z,9048
2016-10-08T10:33:53.657Z,9200
2016-10-08T10:34:53.746Z,9408
2016-10-08T10:35:53.388Z,9596
2016-10-08T10:36:53.420Z,9696
2016-10-08T10:37:53.454Z,9880
2016-10-08T10:38:53.462Z,10084
2016-10-08T10:39:53.368Z,10324
2016-10-08T10:40:53.497Z,10512
2016-10-08T10:41:53.568Z,10716
2016-10-08T10:42:53.522Z,11204
2016-10-08T10:43:53.893Z,11720
2016-10-08T10:44:53.605Z,11908
2016-10-08T10:45:53.611Z,11952
2016-10-08T10:46:53.941Z,12056
2016-10-08T10:47:53.965Z,11896
2016-10-08T10:48:53.989Z,11980
2016-10-08T10:49:53.692Z,11932
2016-10-08T10:50:54.028Z,11720
2016-10-08T10:51:53.766Z,11672
2016-10-08T10:52:53.747Z,11864
2016-10-08T10:53:54.065Z,11812
2016-10-08T10:54:54.821Z,11580
2016-10-08T10:55:54.187Z,11252
2016-10-08T10:56:54.513Z,10868
2016-10-08T10:57:54.766Z,10460
2016-10-08T10:58:54.227Z,10120
2016-10-08T10:59:54.240Z,9832
2016-10-08T11:00:54.236Z,9704
2016-10-08T11:01:54.267Z,9540
2016-10-08T11:02:54.268Z,9244
2016-10-08T11:03:54.420Z,8916
2016-10-08T11:04:54.317Z,8704
2016-10-08T11:05:54.075Z,8928
2016-10-08T11:06:54.061Z,9172
2016-10-08T11:07:54.099Z,9488
2016-10-08T11:08:54.448Z,10124
2016-10-08T11:09:54.131Z,10944
2016-10-08T11:10:54.450Z,10804
2016-10-08T11:11:54.172Z,11092
2016-10-08T11:12:54.490Z,11436
2016-10-08T11:13:54.232Z,11552
2016-10-08T11:14:54.943Z,11616
2016-10-08T11:15:54.363Z,11648
2016-10-08T11:16:55.232Z,11852
2016-10-08T11:17:53.993Z,12060
2016-10-08T11:18:54.313Z,11996
2016-10-08T11:19:54.671Z,12044
2016-10-08T11:20:54.684Z,12176
2016-10-08T11:21:54.900Z,12396
2016-10-08T11:22:54.702Z,12536
2016-10-08T11:23:54.729Z,12776
2016-10-08T11:24:54.152Z,12672
2016-10-08T11:25:54.790Z,12496
2016-10-08T11:26:54.550Z,12304
2016-10-08T11:27:54.939Z,11848
2016-10-08T11:28:54.962Z,11080
2016-10-08T11:29:54.850Z,10392
2016-10-08T11:30:56.354Z,10376
2016-10-08T11:31:56.521Z,10348
2016-10-08T11:32:57.407Z,9572
2016-10-08T11:33:58.196Z,10060
2016-10-08T11:34:57.583Z,10636
2016-10-08T11:35:55.342Z,10964
2016-10-08T11:36:57.422Z,11268
2016-10-08T11:37:56.742Z,11476
2016-10-08T11:38:57.394Z,11588
2016-10-08T11:39:56.328Z,11856
2016-10-08T11:40:55.244Z,12032
2016-10-08T11:41:54.853Z,12216
2016-10-08T11:42:57.801Z,12416
2016-10-08T11:43:58.042Z,12536
2016-10-08T11:44:56.764Z,12572
2016-10-08T11:45:57.762Z,12408
2016-10-08T11:46:56.806Z,12268
2016-10-08T11:47:57.777Z,12216
2016-10-08T11:48:57.468Z,12224
2016-10-08T11:49:56.111Z,12220
2016-10-08T11:50:56.525Z,12156
2016-10-08T11:51:56.553Z,12024
2016-10-08T11:52:55.560Z,11956
2016-10-08T11:53:56.669Z,11892
2016-10-08T11:54:57.981Z,11740
2016-10-08T11:55:57.856Z,11520
2016-10-08T11:56:58.105Z,11340
2016-10-08T11:57:56.454Z,11196
2016-10-08T11:58:57.008Z,11084
2016-10-08T11:59:55.686Z,10964
2016-10-08T12:00:56.588Z,10788
2016-10-08T12:01:58.227Z,10604
2016-10-08T12:02:59.312Z,10440
2016-10-08T12:03:58.073Z,10256
2016-10-08T12:04:57.199Z,10076
2016-10-08T12:05:57.564Z,9920
2016-10-08T12:06:57.366Z,9800
2016-10-08T12:07:57.738Z,9800
2016-10-08T12:08:58.420Z,9960
2016-10-08T12:09:57.669Z,10188
2016-10-08T12:10:57.996Z,10476
2016-10-08T12:11:57.450Z,10688
2016-10-08T12:12:57.060Z,10808
2016-10-08T12:13:57.301Z,10900
2016-10-08T12:14:58.365Z,11092
2016-10-08T12:15:58.307Z,11188
2016-10-08T12:16:59.059Z,11156
2016-10-08T12:17:58.610Z,11108
2016-10-08T12:18:57.758Z,11088
2016-10-08T12:19:58.072Z,11100
2016-10-08T12:20:58.335Z,11132
2016-10-08T12:21:57.117Z,11172
2016-10-08T12:22:57.794Z,11180
2016-10-08T12:23:58.669Z,11108
2016-10-08T12:24:57.337Z,10992
2016-10-08T12:25:56.462Z,10900
2016-10-08T12:26:57.079Z,10832
2016-10-08T12:27:58.217Z,10792
2016-10-08T12:28:58.831Z,10716
2016-10-08T12:29:58.431Z,10628
2016-10-08T12:30:58.336Z,10552
2016-10-08T12:31:58.797Z,10504
2016-10-08T12:32:57.369Z,10472
2016-10-08T12:33:57.542Z,10392
2016-10-08T12:34:57.206Z,10288
2016-10-08T12:35:58.300Z,10196
2016-10-08T12:36:59.316Z,10164
2016-10-08T12:37:59.418Z,10216
2016-10-08T12:38:56.901Z,10360
2016-10-08T12:39:58.519Z,10484
2016-10-08T12:40:58.496Z,10548
2016-10-08T12:41:58.040Z,10564
2016-10-08T12:42:57.042Z,10568
2016-10-08T12:43:58.909Z,10592
2016-10-08T12:44:58.934Z,10576
2016-10-08T12:45:58.933Z,10504
2016-10-08T12:46:58.070Z,10420
2016-10-08T12:47:58.424Z,10332
2016-10-08T12:48:57.337Z,10220
2016-10-08T12:49:57.129Z,10092
2016-10-08T12:50:58.795Z,9908
2016-10-08T12:51:58.612Z,9708
2016-10-08T12:52:56.943Z,9512
2016-10-08T12:53:58.938Z,9340
2016-10-08T12:54:58.653Z,9224
2016-10-08T12:55:59.558Z,9164
2016-10-08T12:56:58.132Z,9032
2016-10-08T12:57:58.726Z,8840
2016-10-08T12:58:59.310Z,8692
2016-10-08T12:59:58.389Z,8584
2016-10-08T13:00:59.824Z,8468
2016-10-08T13:01:57.459Z,8396
2016-10-08T13:02:58.142Z,8356
2016-10-08T13:03:58.264Z,8332
2016-10-08T13:04:58.149Z,8276
2016-10-08T13:05:58.552Z,8184
2016-10-08T13:06:58.735Z,8120
2016-10-08T13:07:57.085Z,8124
2016-10-08T13:08:58.279Z,8140
2016-10-08T13:09:58.588Z,8160
2016-10-08T13:10:57.696Z,8148
2016-10-08T13:11:58.726Z,8176
2016-10-08T13:12:59.353Z,8152
2016-10-08T13:13:58.024Z,8104
2016-10-08T13:14:59.780Z,8048
2016-10-08T13:15:59.773Z,7976
2016-10-08T13:16:58.285Z,7972
2016-10-08T13:17:58.187Z,8004
2016-10-08T13:18:59.930Z,7964
2016-10-08T13:19:59.607Z,7892
2016-10-08T13:20:59.911Z,7920
2016-10-08T13:21:59.181Z,8088
2016-10-08T13:22:59.859Z,8268
2016-10-08T13:23:57.868Z,8284
2016-10-08T13:24:59.447Z,8020
2016-10-08T13:25:59.856Z,7716
2016-10-08T13:26:57.188Z,7448
2016-10-08T13:27:59.650Z,7184
2016-10-08T13:29:00.051Z,7148
2016-10-08T13:29:59.217Z,7232
2016-10-08T13:30:58.663Z,7360
2016-10-08T13:31:59.747Z,7528
2016-10-08T13:32:58.445Z,7696
2016-10-08T13:33:58.611Z,7800
2016-10-08T13:34:59.795Z,7936
2016-10-08T13:36:00.340Z,8100
2016-10-08T13:36:59.569Z,8164
2016-10-08T13:37:58.929Z,8188
2016-10-08T13:38:58.671Z,8184
2016-10-08T13:39:59.504Z,8132
2016-10-08T13:40:59.923Z,8028
2016-10-08T13:41:59.863Z,7880
2016-10-08T13:42:59.774Z,7700
2016-10-08T13:44:00.777Z,7504
2016-10-08T13:44:59.782Z,7292
2016-10-08T13:45:59.701Z,7048